sensor_id;sensor_type;location;lat;lon;timestamp;P1;durP1;ratioP1;P2;durP2;ratioP2
62990;SDS011;49084;48.204;16.202;2022-11-04T00:01:25;39.20;;;22.40;;
62990;SDS011;49084;48.204;16.202;2022-11-04T00:03:51;43.92;;;22.58;;
62990;SDS011;49084;48.204;16.202;2022-11-04T00:06:18;45.10;;;23.92;;
62990;SDS011;49084;48.204;16.202;2022-11-04T00:08:55;42.35;;;22.75;;
62990;SDS011;49084;48.204;16.202;2022-11-04T00:11:22;39.55;;;22.85;;
62990;SDS011;49084;48.204;16.202;2022-11-04T00:14:07;39.83;;;23.20;;
62990;SDS011;49084;48.204;16.202;2022-11-04T00:16:34;38.60;;;23.13;;
62990;SDS011;49084;48.204;16.202;2022-11-04T00:19:18;38.75;;;22.58;;
62990;SDS011;49084;48.204;16.202;2022-11-04T00:21:44;44.55;;;22.77;;
62990;SDS011;49084;48.204;16.202;2022-11-04T00:24:28;37.40;;;21.95;;
62990;SDS011;49084;48.204;16.202;2022-11-04T00:27:10;39.72;;;23.65;;
62990;SDS011;49084;48.204;16.202;2022-11-04T00:29:55;39.47;;;22.90;;
62990;SDS011;49084;48.204;16.202;2022-11-04T00:32:21;39.28;;;23.75;;
62990;SDS011;49084;48.204;16.202;2022-11-04T00:35:06;39.72;;;24.00;;
62990;SDS011;49084;48.204;16.202;2022-11-04T00:37:39;44.90;;;24.80;;
62990;SDS011;49084;48.204;16.202;2022-11-04T00:40:07;43.00;;;24.35;;
62990;SDS011;49084;48.204;16.202;2022-11-04T00:42:33;41.78;;;23.65;;
62990;SDS011;49084;48.204;16.202;2022-11-04T00:44:59;43.72;;;25.63;;
62990;SDS011;49084;48.204;16.202;2022-11-04T00:47:25;44.42;;;26.42;;
62990;SDS011;49084;48.204;16.202;2022-11-04T00:49:51;43.53;;;25.33;;
62990;SDS011;49084;48.204;16.202;2022-11-04T00:52:17;42.45;;;24.63;;
62990;SDS011;49084;48.204;16.202;2022-11-04T00:54:43;39.83;;;26.13;;
62990;SDS011;49084;48.204;16.202;2022-11-04T00:57:09;43.55;;;24.98;;
62990;SDS011;49084;48.204;16.202;2022-11-04T00:59:37;43.08;;;27.10;;
62990;SDS011;49084;48.204;16.202;2022-11-04T01:02:04;48.50;;;27.60;;
62990;SDS011;49084;48.204;16.202;2022-11-04T01:04:31;45.22;;;25.92;;
62990;SDS011;49084;48.204;16.202;2022-11-04T01:06:56;44.03;;;26.88;;
62990;SDS011;49084;48.204;16.202;2022-11-04T01:09:22;46.00;;;28.58;;
62990;SDS011;49084;48.204;16.202;2022-11-04T01:11:48;46.75;;;28.60;;
62990;SDS011;49084;48.204;16.202;2022-11-04T01:14:14;48.17;;;28.85;;
62990;SDS011;49084;48.204;16.202;2022-11-04T01:16:40;47.40;;;27.83;;
62990;SDS011;49084;48.204;16.202;2022-11-04T01:19:06;49.30;;;29.10;;
62990;SDS011;49084;48.204;16.202;2022-11-04T01:21:31;46.13;;;28.40;;
62990;SDS011;49084;48.204;16.202;2022-11-04T01:23:58;48.15;;;29.15;;
62990;SDS011;49084;48.204;16.202;2022-11-04T01:26:24;49.72;;;29.52;;
62990;SDS011;49084;48.204;16.202;2022-11-04T01:28:51;48.28;;;28.77;;
62990;SDS011;49084;48.204;16.202;2022-11-04T01:31:19;48.13;;;29.30;;
62990;SDS011;49084;48.204;16.202;2022-11-04T01:33:47;54.45;;;29.70;;
62990;SDS011;49084;48.204;16.202;2022-11-04T01:36:13;54.35;;;30.30;;
62990;SDS011;49084;48.204;16.202;2022-11-04T01:38:39;50.83;;;29.70;;
62990;SDS011;49084;48.204;16.202;2022-11-04T01:41:06;51.88;;;31.30;;
62990;SDS011;49084;48.204;16.202;2022-11-04T01:46:19;54.67;;;31.92;;
62990;SDS011;49084;48.204;16.202;2022-11-04T01:48:52;54.85;;;32.35;;
62990;SDS011;49084;48.204;16.202;2022-11-04T01:51:23;51.15;;;30.52;;
62990;SDS011;49084;48.204;16.202;2022-11-04T01:53:51;51.72;;;31.40;;
62990;SDS011;49084;48.204;16.202;2022-11-04T01:56:20;51.38;;;31.50;;
62990;SDS011;49084;48.204;16.202;2022-11-04T01:58:47;58.08;;;31.33;;
62990;SDS011;49084;48.204;16.202;2022-11-04T02:01:15;52.90;;;31.15;;
62990;SDS011;49084;48.204;16.202;2022-11-04T02:03:46;54.72;;;33.13;;
62990;SDS011;49084;48.204;16.202;2022-11-04T02:06:16;54.83;;;32.00;;
62990;SDS011;49084;48.204;16.202;2022-11-04T02:08:43;56.17;;;32.40;;
62990;SDS011;49084;48.204;16.202;2022-11-04T02:11:10;56.42;;;32.20;;
62990;SDS011;49084;48.204;16.202;2022-11-04T02:13:56;53.83;;;31.15;;
62990;SDS011;49084;48.204;16.202;2022-11-04T02:19:04;50.90;;;31.70;;
62990;SDS011;49084;48.204;16.202;2022-11-04T02:40:53;57.70;;;32.88;;
62990;SDS011;49084;48.204;16.202;2022-11-04T02:48:54;52.40;;;31.63;;
62990;SDS011;49084;48.204;16.202;2022-11-04T02:51:30;54.50;;;32.38;;
62990;SDS011;49084;48.204;16.202;2022-11-04T02:56:48;54.75;;;31.92;;
62990;SDS011;49084;48.204;16.202;2022-11-04T02:59:21;53.75;;;32.28;;
62990;SDS011;49084;48.204;16.202;2022-11-04T03:01:55;55.75;;;31.80;;
62990;SDS011;49084;48.204;16.202;2022-11-04T03:04:26;54.97;;;33.03;;
62990;SDS011;49084;48.204;16.202;2022-11-04T03:06:54;52.78;;;31.17;;
62990;SDS011;49084;48.204;16.202;2022-11-04T03:09:23;49.50;;;31.83;;
62990;SDS011;49084;48.204;16.202;2022-11-04T03:11:52;58.13;;;33.58;;
62990;SDS011;49084;48.204;16.202;2022-11-04T03:14:27;55.20;;;32.88;;
62990;SDS011;49084;48.204;16.202;2022-11-04T03:17:00;56.03;;;32.30;;
62990;SDS011;49084;48.204;16.202;2022-11-04T03:19:38;53.28;;;32.30;;
62990;SDS011;49084;48.204;16.202;2022-11-04T03:22:11;53.45;;;31.38;;
62990;SDS011;49084;48.204;16.202;2022-11-04T03:24:44;60.10;;;34.65;;
62990;SDS011;49084;48.204;16.202;2022-11-04T03:32:21;60.63;;;33.88;;
62990;SDS011;49084;48.204;16.202;2022-11-04T03:34:48;57.08;;;32.78;;
62990;SDS011;49084;48.204;16.202;2022-11-04T03:37:14;59.90;;;34.42;;
62990;SDS011;49084;48.204;16.202;2022-11-04T03:39:39;62.25;;;34.58;;
62990;SDS011;49084;48.204;16.202;2022-11-04T03:42:06;58.75;;;34.42;;
62990;SDS011;49084;48.204;16.202;2022-11-04T03:45:00;57.88;;;34.38;;
62990;SDS011;49084;48.204;16.202;2022-11-04T03:47:27;60.13;;;34.22;;
62990;SDS011;49084;48.204;16.202;2022-11-04T03:50:17;53.55;;;33.67;;
62990;SDS011;49084;48.204;16.202;2022-11-04T03:52:40;61.05;;;34.45;;
62990;SDS011;49084;48.204;16.202;2022-11-04T03:55:05;58.40;;;34.53;;
62990;SDS011;49084;48.204;16.202;2022-11-04T04:00:20;59.15;;;33.47;;
62990;SDS011;49084;48.204;16.202;2022-11-04T04:05:27;60.25;;;33.17;;
62990;SDS011;49084;48.204;16.202;2022-11-04T04:11:04;61.53;;;33.83;;
62990;SDS011;49084;48.204;16.202;2022-11-04T04:16:41;65.10;;;34.53;;
62990;SDS011;49084;48.204;16.202;2022-11-04T04:19:17;64.93;;;35.58;;
62990;SDS011;49084;48.204;16.202;2022-11-04T04:21:50;61.60;;;35.03;;
62990;SDS011;49084;48.204;16.202;2022-11-04T04:24:22;55.80;;;33.55;;
62990;SDS011;49084;48.204;16.202;2022-11-04T04:27:10;59.30;;;35.13;;
62990;SDS011;49084;48.204;16.202;2022-11-04T04:30:06;64.00;;;35.00;;
62990;SDS011;49084;48.204;16.202;2022-11-04T04:32:38;58.92;;;34.53;;
62990;SDS011;49084;48.204;16.202;2022-11-04T04:35:08;66.78;;;36.70;;
62990;SDS011;49084;48.204;16.202;2022-11-04T04:37:54;62.20;;;35.10;;
62990;SDS011;49084;48.204;16.202;2022-11-04T04:43:29;64.57;;;34.95;;
62990;SDS011;49084;48.204;16.202;2022-11-04T04:46:13;61.47;;;36.03;;
62990;SDS011;49084;48.204;16.202;2022-11-04T04:48:39;69.93;;;37.20;;
62990;SDS011;49084;48.204;16.202;2022-11-04T04:51:05;66.57;;;37.90;;
62990;SDS011;49084;48.204;16.202;2022-11-04T04:53:31;56.03;;;33.75;;
62990;SDS011;49084;48.204;16.202;2022-11-04T04:55:56;58.95;;;33.83;;
62990;SDS011;49084;48.204;16.202;2022-11-04T04:58:22;58.20;;;34.75;;
62990;SDS011;49084;48.204;16.202;2022-11-04T05:00:48;56.70;;;32.45;;
62990;SDS011;49084;48.204;16.202;2022-11-04T05:03:13;56.15;;;33.13;;
62990;SDS011;49084;48.204;16.202;2022-11-04T05:05:39;57.15;;;32.90;;
62990;SDS011;49084;48.204;16.202;2022-11-04T05:08:05;50.65;;;31.55;;
62990;SDS011;49084;48.204;16.202;2022-11-04T05:10:32;49.78;;;30.35;;
62990;SDS011;49084;48.204;16.202;2022-11-04T05:12:58;51.78;;;32.20;;
62990;SDS011;49084;48.204;16.202;2022-11-04T05:15:43;53.83;;;32.10;;
62990;SDS011;49084;48.204;16.202;2022-11-04T05:18:09;57.10;;;31.70;;
62990;SDS011;49084;48.204;16.202;2022-11-04T05:20:35;52.85;;;31.42;;
62990;SDS011;49084;48.204;16.202;2022-11-04T05:23:02;51.22;;;30.65;;
62990;SDS011;49084;48.204;16.202;2022-11-04T05:25:28;54.17;;;30.95;;
62990;SDS011;49084;48.204;16.202;2022-11-04T05:27:54;49.33;;;30.00;;
62990;SDS011;49084;48.204;16.202;2022-11-04T05:30:23;50.88;;;29.85;;
62990;SDS011;49084;48.204;16.202;2022-11-04T05:32:48;59.00;;;30.30;;
62990;SDS011;49084;48.204;16.202;2022-11-04T05:35:14;47.22;;;29.67;;
62990;SDS011;49084;48.204;16.202;2022-11-04T05:37:39;47.88;;;28.35;;
62990;SDS011;49084;48.204;16.202;2022-11-04T05:40:05;43.85;;;26.55;;
62990;SDS011;49084;48.204;16.202;2022-11-04T05:42:31;43.17;;;25.42;;
62990;SDS011;49084;48.204;16.202;2022-11-04T05:44:57;40.97;;;26.60;;
62990;SDS011;49084;48.204;16.202;2022-11-04T05:47:22;45.90;;;26.50;;
62990;SDS011;49084;48.204;16.202;2022-11-04T05:49:48;40.15;;;25.25;;
62990;SDS011;49084;48.204;16.202;2022-11-04T05:52:14;44.80;;;23.10;;
62990;SDS011;49084;48.204;16.202;2022-11-04T05:54:39;38.80;;;25.17;;
62990;SDS011;49084;48.204;16.202;2022-11-04T05:57:05;38.95;;;23.10;;
62990;SDS011;49084;48.204;16.202;2022-11-04T05:59:30;37.17;;;23.23;;
62990;SDS011;49084;48.204;16.202;2022-11-04T06:01:56;41.92;;;26.83;;
62990;SDS011;49084;48.204;16.202;2022-11-04T06:04:22;48.28;;;27.77;;
62990;SDS011;49084;48.204;16.202;2022-11-04T06:06:47;53.35;;;28.63;;
62990;SDS011;49084;48.204;16.202;2022-11-04T06:09:13;51.50;;;30.35;;
62990;SDS011;49084;48.204;16.202;2022-11-04T06:11:39;48.38;;;28.67;;
62990;SDS011;49084;48.204;16.202;2022-11-04T06:14:04;43.60;;;27.20;;
62990;SDS011;49084;48.204;16.202;2022-11-04T06:16:30;52.90;;;30.50;;
62990;SDS011;49084;48.204;16.202;2022-11-04T06:18:56;43.08;;;26.50;;
62990;SDS011;49084;48.204;16.202;2022-11-04T06:21:28;51.75;;;28.23;;
62990;SDS011;49084;48.204;16.202;2022-11-04T06:23:58;43.40;;;26.27;;
62990;SDS011;49084;48.204;16.202;2022-11-04T06:26:24;44.95;;;26.38;;
62990;SDS011;49084;48.204;16.202;2022-11-04T06:28:51;48.97;;;26.20;;
62990;SDS011;49084;48.204;16.202;2022-11-04T06:31:17;46.83;;;26.25;;
62990;SDS011;49084;48.204;16.202;2022-11-04T06:33:43;48.45;;;28.45;;
62990;SDS011;49084;48.204;16.202;2022-11-04T06:36:10;50.80;;;28.20;;
62990;SDS011;49084;48.204;16.202;2022-11-04T06:38:38;51.42;;;28.38;;
62990;SDS011;49084;48.204;16.202;2022-11-04T06:41:04;53.38;;;28.50;;
62990;SDS011;49084;48.204;16.202;2022-11-04T06:43:31;48.17;;;28.23;;
62990;SDS011;49084;48.204;16.202;2022-11-04T06:45:57;50.65;;;28.08;;
62990;SDS011;49084;48.204;16.202;2022-11-04T06:48:24;39.85;;;22.23;;
62990;SDS011;49084;48.204;16.202;2022-11-04T06:50:51;42.58;;;21.95;;
62990;SDS011;49084;48.204;16.202;2022-11-04T06:53:17;33.25;;;17.88;;
62990;SDS011;49084;48.204;16.202;2022-11-04T06:55:43;28.85;;;17.98;;
62990;SDS011;49084;48.204;16.202;2022-11-04T06:58:09;32.05;;;14.52;;
62990;SDS011;49084;48.204;16.202;2022-11-04T07:00:35;22.48;;;15.60;;
62990;SDS011;49084;48.204;16.202;2022-11-04T07:03:01;20.50;;;12.50;;
62990;SDS011;49084;48.204;16.202;2022-11-04T07:05:26;19.10;;;11.23;;
62990;SDS011;49084;48.204;16.202;2022-11-04T07:07:52;19.67;;;10.95;;
62990;SDS011;49084;48.204;16.202;2022-11-04T07:10:17;18.45;;;10.85;;
62990;SDS011;49084;48.204;16.202;2022-11-04T07:12:43;21.00;;;12.18;;
62990;SDS011;49084;48.204;16.202;2022-11-04T07:15:09;20.77;;;11.75;;
62990;SDS011;49084;48.204;16.202;2022-11-04T07:17:35;20.75;;;13.40;;
62990;SDS011;49084;48.204;16.202;2022-11-04T07:20:01;28.40;;;14.57;;
62990;SDS011;49084;48.204;16.202;2022-11-04T07:22:27;29.33;;;15.10;;
62990;SDS011;49084;48.204;16.202;2022-11-04T07:24:52;20.48;;;12.90;;
62990;SDS011;49084;48.204;16.202;2022-11-04T07:27:18;22.70;;;13.15;;
62990;SDS011;49084;48.204;16.202;2022-11-04T07:29:43;19.27;;;11.15;;
62990;SDS011;49084;48.204;16.202;2022-11-04T07:32:09;16.25;;;11.48;;
62990;SDS011;49084;48.204;16.202;2022-11-04T07:34:35;24.55;;;13.93;;
62990;SDS011;49084;48.204;16.202;2022-11-04T07:37:00;25.38;;;14.40;;
62990;SDS011;49084;48.204;16.202;2022-11-04T07:39:26;20.08;;;12.48;;
62990;SDS011;49084;48.204;16.202;2022-11-04T07:41:52;20.70;;;11.00;;
62990;SDS011;49084;48.204;16.202;2022-11-04T07:44:17;22.00;;;11.00;;
62990;SDS011;49084;48.204;16.202;2022-11-04T07:46:43;23.35;;;13.35;;
62990;SDS011;49084;48.204;16.202;2022-11-04T07:49:09;16.45;;;9.48;;
62990;SDS011;49084;48.204;16.202;2022-11-04T07:51:35;15.27;;;10.15;;
62990;SDS011;49084;48.204;16.202;2022-11-04T07:54:00;14.18;;;7.00;;
62990;SDS011;49084;48.204;16.202;2022-11-04T07:56:26;12.18;;;7.00;;
62990;SDS011;49084;48.204;16.202;2022-11-04T07:58:52;11.07;;;7.65;;
62990;SDS011;49084;48.204;16.202;2022-11-04T08:01:19;10.02;;;5.95;;
62990;SDS011;49084;48.204;16.202;2022-11-04T08:03:47;13.10;;;7.47;;
62990;SDS011;49084;48.204;16.202;2022-11-04T08:06:15;12.25;;;6.25;;
62990;SDS011;49084;48.204;16.202;2022-11-04T08:08:42;13.63;;;7.93;;
62990;SDS011;49084;48.204;16.202;2022-11-04T08:11:12;13.00;;;8.13;;
62990;SDS011;49084;48.204;16.202;2022-11-04T08:13:43;13.75;;;8.93;;
62990;SDS011;49084;48.204;16.202;2022-11-04T08:16:19;12.55;;;7.88;;
62990;SDS011;49084;48.204;16.202;2022-11-04T08:18:47;11.77;;;8.68;;
62990;SDS011;49084;48.204;16.202;2022-11-04T08:21:15;15.93;;;10.73;;
62990;SDS011;49084;48.204;16.202;2022-11-04T08:23:41;18.95;;;10.27;;
62990;SDS011;49084;48.204;16.202;2022-11-04T08:26:08;27.77;;;12.70;;
62990;SDS011;49084;48.204;16.202;2022-11-04T08:28:35;16.25;;;8.75;;
62990;SDS011;49084;48.204;16.202;2022-11-04T08:31:02;15.32;;;9.10;;
62990;SDS011;49084;48.204;16.202;2022-11-04T08:33:34;12.18;;;8.02;;
62990;SDS011;49084;48.204;16.202;2022-11-04T08:36:07;13.43;;;6.95;;
62990;SDS011;49084;48.204;16.202;2022-11-04T08:38:36;13.70;;;7.80;;
62990;SDS011;49084;48.204;16.202;2022-11-04T08:41:03;16.88;;;10.77;;
62990;SDS011;49084;48.204;16.202;2022-11-04T08:43:30;16.65;;;10.10;;
62990;SDS011;49084;48.204;16.202;2022-11-04T08:45:58;18.95;;;10.65;;
62990;SDS011;49084;48.204;16.202;2022-11-04T08:48:23;16.73;;;8.90;;
62990;SDS011;49084;48.204;16.202;2022-11-04T08:50:50;9.50;;;4.15;;
62990;SDS011;49084;48.204;16.202;2022-11-04T08:53:17;9.63;;;5.53;;
62990;SDS011;49084;48.204;16.202;2022-11-04T08:55:43;9.27;;;5.30;;
62990;SDS011;49084;48.204;16.202;2022-11-04T08:58:09;14.15;;;5.95;;
62990;SDS011;49084;48.204;16.202;2022-11-04T09:00:35;10.57;;;5.50;;
62990;SDS011;49084;48.204;16.202;2022-11-04T09:03:00;8.23;;;4.85;;
62990;SDS011;49084;48.204;16.202;2022-11-04T09:05:26;8.75;;;4.68;;
62990;SDS011;49084;48.204;16.202;2022-11-04T09:07:52;7.30;;;3.92;;
62990;SDS011;49084;48.204;16.202;2022-11-04T09:10:19;7.20;;;4.75;;
62990;SDS011;49084;48.204;16.202;2022-11-04T09:12:45;10.48;;;5.38;;
62990;SDS011;49084;48.204;16.202;2022-11-04T09:15:10;12.63;;;6.25;;
62990;SDS011;49084;48.204;16.202;2022-11-04T09:17:36;15.50;;;7.15;;
62990;SDS011;49084;48.204;16.202;2022-11-04T09:20:03;17.10;;;9.23;;
62990;SDS011;49084;48.204;16.202;2022-11-04T09:22:29;31.63;;;16.27;;
62990;SDS011;49084;48.204;16.202;2022-11-04T09:24:55;38.70;;;20.40;;
62990;SDS011;49084;48.204;16.202;2022-11-04T09:27:21;42.75;;;22.33;;
62990;SDS011;49084;48.204;16.202;2022-11-04T09:29:47;29.88;;;15.25;;
62990;SDS011;49084;48.204;16.202;2022-11-04T09:32:13;33.85;;;17.00;;
62990;SDS011;49084;48.204;16.202;2022-11-04T09:34:38;29.75;;;16.25;;
62990;SDS011;49084;48.204;16.202;2022-11-04T09:37:04;28.73;;;14.77;;
62990;SDS011;49084;48.204;16.202;2022-11-04T09:39:30;29.25;;;15.23;;
62990;SDS011;49084;48.204;16.202;2022-11-04T09:47:23;28.73;;;16.70;;
62990;SDS011;49084;48.204;16.202;2022-11-04T09:49:50;43.88;;;22.65;;
62990;SDS011;49084;48.204;16.202;2022-11-04T09:55:19;49.17;;;27.48;;
62990;SDS011;49084;48.204;16.202;2022-11-04T09:57:56;55.58;;;30.45;;
62990;SDS011;49084;48.204;16.202;2022-11-04T10:00:23;49.60;;;27.92;;
62990;SDS011;49084;48.204;16.202;2022-11-04T10:11:12;56.90;;;28.65;;
62990;SDS011;49084;48.204;16.202;2022-11-04T10:16:41;14.18;;;8.98;;
62990;SDS011;49084;48.204;16.202;2022-11-04T10:19:33;12.52;;;8.13;;
62990;SDS011;49084;48.204;16.202;2022-11-04T10:24:53;1.45;;;1.23;;
62990;SDS011;49084;48.204;16.202;2022-11-04T10:27:45;4.43;;;1.35;;
62990;SDS011;49084;48.204;16.202;2022-11-04T10:32:54;2.45;;;1.23;;
62990;SDS011;49084;48.204;16.202;2022-11-04T10:35:45;2.67;;;1.30;;
62990;SDS011;49084;48.204;16.202;2022-11-04T10:38:28;2.83;;;1.40;;
62990;SDS011;49084;48.204;16.202;2022-11-04T10:43:58;2.42;;;1.40;;
62990;SDS011;49084;48.204;16.202;2022-11-04T10:51:59;2.47;;;1.10;;
62990;SDS011;49084;48.204;16.202;2022-11-04T10:54:25;2.28;;;1.10;;
62990;SDS011;49084;48.204;16.202;2022-11-04T10:56:52;1.98;;;0.80;;
62990;SDS011;49084;48.204;16.202;2022-11-04T10:59:29;2.00;;;0.88;;
62990;SDS011;49084;48.204;16.202;2022-11-04T11:02:11;1.58;;;0.88;;
62990;SDS011;49084;48.204;16.202;2022-11-04T11:04:37;1.95;;;1.10;;
62990;SDS011;49084;48.204;16.202;2022-11-04T11:07:08;0.60;;;0.60;;
62990;SDS011;49084;48.204;16.202;2022-11-04T11:12:21;1.85;;;0.82;;
62990;SDS011;49084;48.204;16.202;2022-11-04T11:14:55;1.20;;;0.60;;
62990;SDS011;49084;48.204;16.202;2022-11-04T11:20:04;2.22;;;0.50;;
62990;SDS011;49084;48.204;16.202;2022-11-04T11:22:48;0.43;;;0.40;;
62990;SDS011;49084;48.204;16.202;2022-11-04T11:27:53;4.55;;;1.02;;
62990;SDS011;49084;48.204;16.202;2022-11-04T11:30:30;2.13;;;0.95;;
62990;SDS011;49084;48.204;16.202;2022-11-04T11:33:04;0.82;;;0.50;;
62990;SDS011;49084;48.204;16.202;2022-11-04T11:35:33;0.57;;;0.40;;
62990;SDS011;49084;48.204;16.202;2022-11-04T11:38:13;0.80;;;0.40;;
62990;SDS011;49084;48.204;16.202;2022-11-04T11:40:43;1.33;;;0.50;;
62990;SDS011;49084;48.204;16.202;2022-11-04T11:43:26;2.25;;;0.90;;
62990;SDS011;49084;48.204;16.202;2022-11-04T11:45:54;1.67;;;0.52;;
62990;SDS011;49084;48.204;16.202;2022-11-04T11:48:37;0.88;;;0.50;;
62990;SDS011;49084;48.204;16.202;2022-11-04T11:51:04;1.42;;;0.73;;
62990;SDS011;49084;48.204;16.202;2022-11-04T11:53:30;2.70;;;0.93;;
62990;SDS011;49084;48.204;16.202;2022-11-04T11:58:31;1.92;;;0.60;;
62990;SDS011;49084;48.204;16.202;2022-11-04T12:03:54;1.35;;;0.88;;
62990;SDS011;49084;48.204;16.202;2022-11-04T12:06:24;2.28;;;0.93;;
62990;SDS011;49084;48.204;16.202;2022-11-04T12:08:57;1.05;;;0.77;;
62990;SDS011;49084;48.204;16.202;2022-11-04T12:30:15;2.00;;;0.65;;
62990;SDS011;49084;48.204;16.202;2022-11-04T12:41:05;0.98;;;0.47;;
62990;SDS011;49084;48.204;16.202;2022-11-04T12:46:11;1.83;;;0.73;;
62990;SDS011;49084;48.204;16.202;2022-11-04T12:48:58;1.10;;;0.60;;
62990;SDS011;49084;48.204;16.202;2022-11-04T13:02:51;1.45;;;0.60;;
62990;SDS011;49084;48.204;16.202;2022-11-04T13:05:25;1.95;;;0.90;;
62990;SDS011;49084;48.204;16.202;2022-11-04T13:08:23;1.63;;;0.98;;
62990;SDS011;49084;48.204;16.202;2022-11-04T13:13:35;0.65;;;0.60;;
62990;SDS011;49084;48.204;16.202;2022-11-04T13:16:05;0.60;;;0.60;;
62990;SDS011;49084;48.204;16.202;2022-11-04T13:18:36;2.50;;;0.60;;
62990;SDS011;49084;48.204;16.202;2022-11-04T13:21:06;0.63;;;0.43;;
62990;SDS011;49084;48.204;16.202;2022-11-04T13:23:40;0.98;;;0.75;;
62990;SDS011;49084;48.204;16.202;2022-11-04T13:26:22;1.02;;;0.50;;
62990;SDS011;49084;48.204;16.202;2022-11-04T13:28:56;1.00;;;0.50;;
62990;SDS011;49084;48.204;16.202;2022-11-04T13:32:08;0.80;;;0.75;;
62990;SDS011;49084;48.204;16.202;2022-11-04T13:37:09;3.15;;;0.60;;
62990;SDS011;49084;48.204;16.202;2022-11-04T13:45:12;0.30;;;0.30;;
62990;SDS011;49084;48.204;16.202;2022-11-04T13:47:48;0.60;;;0.30;;
62990;SDS011;49084;48.204;16.202;2022-11-04T13:50:33;1.05;;;0.30;;
62990;SDS011;49084;48.204;16.202;2022-11-04T13:53:02;0.75;;;0.25;;
62990;SDS011;49084;48.204;16.202;2022-11-04T13:55:29;0.13;;;0.10;;
62990;SDS011;49084;48.204;16.202;2022-11-04T13:58:02;0.30;;;0.22;;
62990;SDS011;49084;48.204;16.202;2022-11-04T14:00:33;0.40;;;0.25;;
62990;SDS011;49084;48.204;16.202;2022-11-04T14:06:00;0.82;;;0.50;;
62990;SDS011;49084;48.204;16.202;2022-11-04T14:08:30;0.77;;;0.13;;
62990;SDS011;49084;48.204;16.202;2022-11-04T14:11:15;0.30;;;0.30;;
62990;SDS011;49084;48.204;16.202;2022-11-04T14:13:41;1.15;;;0.10;;
62990;SDS011;49084;48.204;16.202;2022-11-04T14:18:49;0.90;;;0.10;;
62990;SDS011;49084;48.204;16.202;2022-11-04T14:21:17;0.10;;;0.10;;
62990;SDS011;49084;48.204;16.202;2022-11-04T14:23:46;0.20;;;0.20;;
62990;SDS011;49084;48.204;16.202;2022-11-04T14:26:18;0.10;;;0.10;;
62990;SDS011;49084;48.204;16.202;2022-11-04T14:28:48;0.25;;;0.22;;
62990;SDS011;49084;48.204;16.202;2022-11-04T14:31:35;0.20;;;0.08;;
62990;SDS011;49084;48.204;16.202;2022-11-04T14:34:05;0.95;;;0.20;;
62990;SDS011;49084;48.204;16.202;2022-11-04T14:36:41;0.85;;;0.20;;
62990;SDS011;49084;48.204;16.202;2022-11-04T14:44:08;0.10;;;0.10;;
62990;SDS011;49084;48.204;16.202;2022-11-04T14:46:40;2.22;;;0.20;;
62990;SDS011;49084;48.204;16.202;2022-11-04T14:51:54;0.93;;;0.22;;
62990;SDS011;49084;48.204;16.202;2022-11-04T14:54:21;1.38;;;0.10;;
62990;SDS011;49084;48.204;16.202;2022-11-04T14:56:49;0.43;;;0.20;;
62990;SDS011;49084;48.204;16.202;2022-11-04T14:59:25;2.67;;;0.20;;
62990;SDS011;49084;48.204;16.202;2022-11-04T15:01:52;0.13;;;0.10;;
62990;SDS011;49084;48.204;16.202;2022-11-04T15:04:23;1.20;;;0.10;;
62990;SDS011;49084;48.204;16.202;2022-11-04T15:12:00;0.10;;;0.00;;
62990;SDS011;49084;48.204;16.202;2022-11-04T15:14:48;1.08;;;0.20;;
62990;SDS011;49084;48.204;16.202;2022-11-04T15:17:15;0.70;;;0.10;;
62990;SDS011;49084;48.204;16.202;2022-11-04T15:19:45;1.45;;;0.10;;
62990;SDS011;49084;48.204;16.202;2022-11-04T15:22:16;1.30;;;0.10;;
62990;SDS011;49084;48.204;16.202;2022-11-04T15:24:43;0.10;;;0.10;;
62990;SDS011;49084;48.204;16.202;2022-11-04T15:27:09;0.70;;;0.20;;
62990;SDS011;49084;48.204;16.202;2022-11-04T15:29:51;0.22;;;0.20;;
62990;SDS011;49084;48.204;16.202;2022-11-04T15:32:21;0.20;;;0.10;;
62990;SDS011;49084;48.204;16.202;2022-11-04T15:34:47;0.93;;;0.10;;
62990;SDS011;49084;48.204;16.202;2022-11-04T15:37:14;0.30;;;0.00;;
62990;SDS011;49084;48.204;16.202;2022-11-04T15:39:45;2.10;;;0.10;;
62990;SDS011;49084;48.204;16.202;2022-11-04T15:42:16;0.52;;;0.20;;
62990;SDS011;49084;48.204;16.202;2022-11-04T15:45:21;0.55;;;0.10;;
62990;SDS011;49084;48.204;16.202;2022-11-04T15:50:46;0.38;;;0.30;;
62990;SDS011;49084;48.204;16.202;2022-11-04T15:53:33;0.35;;;0.10;;
62990;SDS011;49084;48.204;16.202;2022-11-04T15:56:04;0.15;;;0.00;;
62990;SDS011;49084;48.204;16.202;2022-11-04T15:58:30;0.28;;;0.10;;
62990;SDS011;49084;48.204;16.202;2022-11-04T16:00:57;0.73;;;0.22;;
62990;SDS011;49084;48.204;16.202;2022-11-04T16:03:23;0.45;;;0.10;;
62990;SDS011;49084;48.204;16.202;2022-11-04T16:06:00;0.00;;;0.00;;
62990;SDS011;49084;48.204;16.202;2022-11-04T16:08:30;0.50;;;0.10;;
62990;SDS011;49084;48.204;16.202;2022-11-04T16:13:34;0.00;;;0.00;;
62990;SDS011;49084;48.204;16.202;2022-11-04T16:26:27;2.38;;;0.00;;
62990;SDS011;49084;48.204;16.202;2022-11-04T16:28:57;0.70;;;0.03;;
62990;SDS011;49084;48.204;16.202;2022-11-04T16:31:33;0.17;;;0.10;;
62990;SDS011;49084;48.204;16.202;2022-11-04T16:33:59;0.55;;;0.15;;
62990;SDS011;49084;48.204;16.202;2022-11-04T16:36:25;0.17;;;0.03;;
62990;SDS011;49084;48.204;16.202;2022-11-04T16:41:25;0.57;;;0.10;;
62990;SDS011;49084;48.204;16.202;2022-11-04T16:43:52;0.38;;;0.10;;
62990;SDS011;49084;48.204;16.202;2022-11-04T16:46:19;0.20;;;0.10;;
62990;SDS011;49084;48.204;16.202;2022-11-04T16:48:46;0.00;;;0.00;;
62990;SDS011;49084;48.204;16.202;2022-11-04T16:51:14;0.85;;;0.25;;
62990;SDS011;49084;48.204;16.202;2022-11-04T16:53:42;1.02;;;0.00;;
62990;SDS011;49084;48.204;16.202;2022-11-04T16:56:08;0.10;;;0.00;;
62990;SDS011;49084;48.204;16.202;2022-11-04T16:58:34;0.93;;;0.13;;
62990;SDS011;49084;48.204;16.202;2022-11-04T17:01:00;0.40;;;0.17;;
62990;SDS011;49084;48.204;16.202;2022-11-04T17:03:26;0.05;;;0.05;;
62990;SDS011;49084;48.204;16.202;2022-11-04T17:05:53;0.20;;;0.10;;
62990;SDS011;49084;48.204;16.202;2022-11-04T17:08:23;0.30;;;0.10;;
62990;SDS011;49084;48.204;16.202;2022-11-04T17:10:49;0.63;;;0.20;;
62990;SDS011;49084;48.204;16.202;2022-11-04T17:13:15;0.60;;;0.15;;
62990;SDS011;49084;48.204;16.202;2022-11-04T17:15:41;0.38;;;0.30;;
62990;SDS011;49084;48.204;16.202;2022-11-04T17:18:14;0.45;;;0.10;;
62990;SDS011;49084;48.204;16.202;2022-11-04T17:20:48;0.70;;;0.15;;
62990;SDS011;49084;48.204;16.202;2022-11-04T17:23:16;0.20;;;0.03;;
62990;SDS011;49084;48.204;16.202;2022-11-04T17:25:43;2.35;;;0.20;;
62990;SDS011;49084;48.204;16.202;2022-11-04T17:28:10;0.20;;;0.20;;
62990;SDS011;49084;48.204;16.202;2022-11-04T17:30:38;0.38;;;0.32;;
62990;SDS011;49084;48.204;16.202;2022-11-04T17:33:05;0.20;;;0.20;;
62990;SDS011;49084;48.204;16.202;2022-11-04T17:38:04;1.05;;;0.40;;
62990;SDS011;49084;48.204;16.202;2022-11-04T17:40:29;1.50;;;0.20;;
62990;SDS011;49084;48.204;16.202;2022-11-04T17:42:57;0.98;;;0.10;;
62990;SDS011;49084;48.204;16.202;2022-11-04T17:45:42;0.40;;;0.17;;